SLSA/SBL METAR and TAF weather

Enter ICAO airport designator
Station Type Date Time Source
SLSA METAR 2020/12/05 23:00 UTC NOAA

SLSA 052300Z 16006KT 9999 FEW015 BKN200 25/23 Q1010


Station Type Date Time Source
SLSA Decoded METAR 2020/12/05 23:00 UTC NOAA

Santa Ana, Bolivia (SLSA) 13-46S 065-26W
Dec 05, 2020 - 06:00 PM EST / 2020.12.05 2300 UTC
Wind: from the SSE (160 degrees) at 7 MPH (6 KT):0
Visibility: greater than 7 mile(s):0
Sky conditions: mostly cloudy
Temperature: 77 F (25 C)
Dew Point: 73 F (23 C)
Relative Humidity: 88%
Pressure (altimeter): 29.83 in. Hg (1010 hPa)
ob: SLSA 052300Z 16006KT 9999 FEW015 BKN200 25/23 Q1010
cycle: 23

Station Type Date Time Source
SLSA TAF 2009/01/07 11:00 UTC NOAA

METAR SLSA 071100Z 00000KT 9999 FEW020 BKN080 26/24 Q1009

Example: see airport list